Time;durP1;ratioP1;P1;durP2;ratioP2;P2;SDS_P1;SDS_P2;PMS_P1;PMS_P2;Temp;Humidity;BMP_temperature;BMP_pressure;BME280_temperature;BME280_humidity;BME280_pressure;Samples;Min_cycle;Max_cycle;Signal;HPM_P1;HPM_P2
2022/07/14 00:00:41;;;;;;;3.97;3.37;;;;;;;;;;5006895;28;20220;-57
2022/07/14 00:03:07;;;;;;;5.73;3.63;;;;;;;;;;5025661;28;20308;-56
2022/07/14 00:05:35;;;;;;;7.70;3.23;;;;;;;;;;5025250;28;20210;-57
2022/07/14 00:08:02;;;;;;;5.00;3.37;;;;;;;;;;5006640;28;20649;-58
2022/07/14 00:10:31;;;;;;;4.97;3.47;;;;;;;;;;5026118;28;20641;-57
2022/07/14 00:12:57;;;;;;;4.27;3.17;;;;;;;;;;5020367;28;20186;-58
2022/07/14 00:15:23;;;;;;;6.70;3.67;;;;;;;;;;5028715;28;20351;-58
2022/07/14 00:17:50;;;;;;;5.17;3.67;;;;;;;;;;5000706;28;20186;-58
2022/07/14 00:20:16;;;;;;;3.93;3.23;;;;;;;;;;5011869;28;20198;-59
2022/07/14 00:22:42;;;;;;;8.03;3.87;;;;;;;;;;5022094;28;20182;-58
2022/07/14 00:25:09;;;;;;;5.20;3.57;;;;;;;;;;5011358;28;20965;-55
2022/07/14 00:27:38;;;;;;;4.87;3.80;;;;;;;;;;5015258;28;20178;-58
2022/07/14 00:30:08;;;;;;;3.87;3.37;;;;;;;;;;5025366;28;20664;-58
2022/07/14 00:32:35;;;;;;;4.33;2.90;;;;;;;;;;5023639;28;20189;-61
2022/07/14 00:35:05;;;;;;;3.67;3.37;;;;;;;;;;5011260;28;20586;-58
2022/07/14 00:37:31;;;;;;;3.80;3.13;;;;;;;;;;5022523;28;20700;-58
2022/07/14 00:39:58;;;;;;;4.53;3.60;;;;;;;;;;5010512;28;20651;-58
2022/07/14 00:42:35;;;;;;;6.17;3.17;;;;;;;;;;5025810;28;20636;-57
2022/07/14 00:45:06;;;;;;;4.33;3.50;;;;;;;;;;5028333;28;20222;-58
2022/07/14 00:47:33;;;;;;;3.80;3.20;;;;;;;;;;5011404;28;20313;-58
2022/07/14 00:50:01;;;;;;;6.70;4.00;;;;;;;;;;5011395;28;20705;-56
2022/07/14 00:52:29;;;;;;;4.37;3.20;;;;;;;;;;5017870;28;20530;-58
2022/07/14 00:54:55;;;;;;;7.40;3.60;;;;;;;;;;5008323;28;20175;-58
2022/07/14 00:57:21;;;;;;;4.20;3.07;;;;;;;;;;5020212;28;20544;-58
2022/07/14 00:59:48;;;;;;;7.37;3.93;;;;;;;;;;5010572;28;20185;-58
2022/07/14 01:02:15;;;;;;;6.60;4.00;;;;;;;;;;5029010;28;20277;-57
2022/07/14 01:04:41;;;;;;;3.70;2.83;;;;;;;;;;5029987;28;20624;-58
2022/07/14 01:07:07;;;;;;;6.87;4.17;;;;;;;;;;5026233;28;20260;-58
2022/07/14 01:09:34;;;;;;;5.13;3.27;;;;;;;;;;5026837;28;20182;-58
2022/07/14 01:12:01;;;;;;;3.20;2.87;;;;;;;;;;4999315;28;20257;-57
2022/07/14 01:14:27;;;;;;;6.30;3.83;;;;;;;;;;5023810;28;20174;-57
2022/07/14 01:16:56;;;;;;;4.47;3.43;;;;;;;;;;5027657;28;20182;-57
2022/07/14 01:19:23;;;;;;;7.23;3.57;;;;;;;;;;5027088;28;20731;-56
2022/07/14 01:21:56;;;;;;;3.67;2.97;;;;;;;;;;5008173;28;20190;-57
2022/07/14 01:24:23;;;;;;;4.37;3.00;;;;;;;;;;5024064;28;20214;-57
2022/07/14 01:26:49;;;;;;;3.50;2.97;;;;;;;;;;5007293;28;20714;-57
2022/07/14 01:29:15;;;;;;;3.50;3.10;;;;;;;;;;5007362;28;20186;-57
2022/07/14 01:31:41;;;;;;;6.63;3.40;;;;;;;;;;4999853;28;20243;-56
2022/07/14 01:34:08;;;;;;;6.13;3.60;;;;;;;;;;5000581;28;20182;-58
2022/07/14 01:36:34;;;;;;;3.80;2.77;;;;;;;;;;5000808;28;20171;-57
2022/07/14 01:39:00;;;;;;;5.43;3.37;;;;;;;;;;4997016;28;20806;-56
2022/07/14 01:41:27;;;;;;;5.83;3.47;;;;;;;;;;5006047;28;20190;-57
2022/07/14 01:43:53;;;;;;;3.33;2.87;;;;;;;;;;5008611;28;20166;-57
2022/07/14 01:46:20;;;;;;;3.77;3.17;;;;;;;;;;5001878;28;20175;-57
2022/07/14 01:48:46;;;;;;;3.00;2.50;;;;;;;;;;4999470;28;20724;-57
2022/07/14 01:51:12;;;;;;;4.57;3.00;;;;;;;;;;4989079;28;20308;-57
2022/07/14 01:53:38;;;;;;;4.17;3.17;;;;;;;;;;4986341;28;20174;-57
2022/07/14 01:56:05;;;;;;;3.67;3.03;;;;;;;;;;4988094;28;20634;-56
2022/07/14 01:58:31;;;;;;;5.50;3.80;;;;;;;;;;5007454;28;20189;-57
2022/07/14 02:03:42;;;;;;;4.33;3.17;;;;;;;;;;5008388;28;20237;-57
2022/07/14 02:06:10;;;;;;;3.90;2.93;;;;;;;;;;5003749;28;20636;-58
2022/07/14 02:08:36;;;;;;;6.23;3.70;;;;;;;;;;4988952;28;20194;-56
2022/07/14 02:13:47;;;;;;;3.70;3.20;;;;;;;;;;5008048;28;20184;-56
2022/07/14 02:16:13;;;;;;;5.73;3.00;;;;;;;;;;5003206;28;20255;-56
2022/07/14 02:18:39;;;;;;;4.67;2.83;;;;;;;;;;4998301;28;20609;-57
2022/07/14 02:21:05;;;;;;;5.37;2.97;;;;;;;;;;4985706;28;20564;-57
2022/07/14 02:23:31;;;;;;;6.57;3.37;;;;;;;;;;4987640;28;20207;-58
2022/07/14 02:25:58;;;;;;;3.77;2.97;;;;;;;;;;4988713;28;20226;-56
2022/07/14 02:28:24;;;;;;;6.00;3.73;;;;;;;;;;5001935;28;20608;-56
2022/07/14 02:30:51;;;;;;;3.00;2.70;;;;;;;;;;5006057;28;20189;-58
2022/07/14 02:33:20;;;;;;;5.43;3.20;;;;;;;;;;5002968;28;20201;-57
2022/07/14 02:35:46;;;;;;;5.87;3.10;;;;;;;;;;4987780;28;20261;-57
2022/07/14 02:38:12;;;;;;;3.57;3.00;;;;;;;;;;4999923;28;20186;-57
2022/07/14 02:40:39;;;;;;;6.43;4.63;;;;;;;;;;4988465;28;20212;-57
2022/07/14 02:43:05;;;;;;;7.43;3.53;;;;;;;;;;4979494;28;20568;-61
2022/07/14 02:45:31;;;;;;;4.43;3.03;;;;;;;;;;4989474;28;20565;-55
2022/07/14 02:47:57;;;;;;;6.53;3.97;;;;;;;;;;4998317;28;20640;-57
2022/07/14 02:50:23;;;;;;;5.43;3.57;;;;;;;;;;4988306;28;20206;-57
2022/07/14 02:52:49;;;;;;;3.83;3.10;;;;;;;;;;4977724;28;20566;-57
2022/07/14 02:55:15;;;;;;;6.67;4.07;;;;;;;;;;4987475;28;20181;-57
2022/07/14 02:57:42;;;;;;;5.27;3.33;;;;;;;;;;5002442;28;20182;-57
2022/07/14 03:00:09;;;;;;;5.63;3.37;;;;;;;;;;4988709;28;20329;-57
2022/07/14 03:02:35;;;;;;;5.70;3.27;;;;;;;;;;5005061;28;20198;-58
2022/07/14 03:05:02;;;;;;;6.37;3.37;;;;;;;;;;4990498;28;20823;-57
2022/07/14 03:07:28;;;;;;;4.73;3.67;;;;;;;;;;4983595;28;20193;-57
2022/07/14 03:09:54;;;;;;;5.43;3.60;;;;;;;;;;4984891;28;20708;-56
2022/07/14 03:12:20;;;;;;;5.67;3.23;;;;;;;;;;4986853;28;20187;-57
2022/07/14 03:14:46;;;;;;;6.60;3.92;;;;;;;;;;5006145;28;20403;-55
2022/07/14 03:17:14;;;;;;;8.77;8.07;;;;;;;;;;4994873;28;20179;-57
2022/07/14 03:19:41;;;;;;;6.07;4.20;;;;;;;;;;4989162;28;20195;-57
2022/07/14 03:22:07;;;;;;;3.83;3.17;;;;;;;;;;4996392;28;20167;-55
2022/07/14 03:24:33;;;;;;;5.17;3.40;;;;;;;;;;5013508;28;20237;-57
2022/07/14 03:27:05;;;;;;;6.20;3.63;;;;;;;;;;5006342;28;20654;-58
2022/07/14 03:29:32;;;;;;;4.60;3.90;;;;;;;;;;5026218;28;20680;-58
2022/07/14 03:31:58;;;;;;;5.70;5.10;;;;;;;;;;5026260;28;20237;-62
2022/07/14 03:34:29;;;;;;;3.87;3.33;;;;;;;;;;5027121;28;20264;-57
2022/07/14 03:36:56;;;;;;;4.00;3.63;;;;;;;;;;5015102;28;20268;-57
2022/07/14 03:39:23;;;;;;;5.17;3.23;;;;;;;;;;5023441;28;20656;-56
2022/07/14 03:41:49;;;;;;;5.77;4.40;;;;;;;;;;5025611;28;20541;-58
2022/07/14 03:44:15;;;;;;;4.90;2.90;;;;;;;;;;5008593;28;20557;-56
2022/07/14 03:46:41;;;;;;;3.27;2.97;;;;;;;;;;5001173;28;20182;-57
2022/07/14 03:49:07;;;;;;;4.23;3.53;;;;;;;;;;5024534;28;20219;-57
2022/07/14 03:51:33;;;;;;;6.47;3.53;;;;;;;;;;5029673;28;20201;-56
2022/07/14 03:53:59;;;;;;;5.10;3.53;;;;;;;;;;5021309;28;20659;-54
2022/07/14 03:56:25;;;;;;;6.57;3.67;;;;;;;;;;5003873;28;20183;-56
2022/07/14 03:58:52;;;;;;;7.07;3.33;;;;;;;;;;5008222;28;20218;-58
2022/07/14 04:01:18;;;;;;;6.93;6.40;;;;;;;;;;5026258;28;20231;-58
2022/07/14 04:03:44;;;;;;;5.93;3.30;;;;;;;;;;5030105;28;20176;-57
2022/07/14 04:06:10;;;;;;;5.10;3.03;;;;;;;;;;5027987;28;20653;-57
2022/07/14 04:08:36;;;;;;;6.30;3.60;;;;;;;;;;5026667;28;20649;-57
2022/07/14 04:11:02;;;;;;;6.23;3.40;;;;;;;;;;5026366;28;20761;-57
2022/07/14 04:13:29;;;;;;;4.83;3.07;;;;;;;;;;5025106;28;20239;-58
2022/07/14 04:15:55;;;;;;;4.63;3.27;;;;;;;;;;5026896;28;20470;-57
2022/07/14 04:18:21;;;;;;;4.17;3.20;;;;;;;;;;5010632;28;20556;-57
2022/07/14 04:20:48;;;;;;;4.03;2.83;;;;;;;;;;5010540;28;20572;-56
2022/07/14 04:23:15;;;;;;;6.03;5.47;;;;;;;;;;5008880;28;20184;-57
2022/07/14 04:25:41;;;;;;;8.40;3.83;;;;;;;;;;5028335;28;20825;-57
2022/07/14 04:28:07;;;;;;;6.00;3.43;;;;;;;;;;5029686;28;20208;-58
2022/07/14 04:30:33;;;;;;;6.47;3.40;;;;;;;;;;5011106;28;20307;-58
2022/07/14 04:32:59;;;;;;;6.70;3.57;;;;;;;;;;5029355;28;20176;-58
2022/07/14 04:35:25;;;;;;;6.00;3.50;;;;;;;;;;5028451;28;20187;-58
2022/07/14 04:37:51;;;;;;;5.40;3.33;;;;;;;;;;4993144;28;20748;-57
2022/07/14 04:40:20;;;;;;;6.27;2.80;;;;;;;;;;4991449;28;20595;-58
2022/07/14 04:42:47;;;;;;;6.67;3.17;;;;;;;;;;5005391;28;20186;-57
2022/07/14 04:45:13;;;;;;;8.47;3.90;;;;;;;;;;4993540;28;20168;-57
2022/07/14 04:47:39;;;;;;;4.87;2.97;;;;;;;;;;5019564;28;20529;-58
2022/07/14 04:52:56;;;;;;;7.73;3.67;;;;;;;;;;5027850;28;20178;-57
2022/07/14 04:55:22;;;;;;;9.30;3.30;;;;;;;;;;5026928;28;20203;-58
2022/07/14 04:57:48;;;;;;;5.70;3.30;;;;;;;;;;5015045;28;20630;-57
2022/07/14 05:00:14;;;;;;;6.13;4.63;;;;;;;;;;5028531;28;20572;-57
2022/07/14 05:02:41;;;;;;;8.57;3.10;;;;;;;;;;5013017;28;20183;-58
2022/07/14 05:05:07;;;;;;;4.80;2.97;;;;;;;;;;5017101;28;20195;-57
2022/07/14 05:07:33;;;;;;;7.80;3.47;;;;;;;;;;5010834;28;20590;-56
2022/07/14 05:10:00;;;;;;;4.73;3.20;;;;;;;;;;5027721;28;20192;-56
2022/07/14 05:12:26;;;;;;;5.33;3.63;;;;;;;;;;5006161;28;20634;-54
2022/07/14 05:14:53;;;;;;;7.83;3.70;;;;;;;;;;5005711;28;20225;-57
2022/07/14 05:17:19;;;;;;;7.17;3.90;;;;;;;;;;5026406;28;20458;-56
2022/07/14 05:19:50;;;;;;;6.03;3.67;;;;;;;;;;5024977;28;21291;-57
2022/07/14 05:22:16;;;;;;;4.90;3.30;;;;;;;;;;5025933;28;20174;-58
2022/07/14 05:25:02;;;;;;;6.47;3.40;;;;;;;;;;5029912;28;20212;-57
2022/07/14 05:27:30;;;;;;;14.50;5.47;;;;;;;;;;5029589;28;20204;-56
2022/07/14 05:29:56;;;;;;;14.23;5.73;;;;;;;;;;5026965;28;20169;-57
2022/07/14 05:32:22;;;;;;;12.30;4.60;;;;;;;;;;5024477;28;20164;-58
2022/07/14 05:34:50;;;;;;;10.17;4.47;;;;;;;;;;5025822;28;20552;-57
2022/07/14 05:37:16;;;;;;;10.47;4.83;;;;;;;;;;5032918;28;20212;-58
2022/07/14 05:39:42;;;;;;;12.87;5.33;;;;;;;;;;5010948;28;20417;-56
2022/07/14 05:42:10;;;;;;;15.90;6.60;;;;;;;;;;5025908;28;20510;-59
2022/07/14 05:44:36;;;;;;;11.07;5.67;;;;;;;;;;5011229;28;20176;-60
2022/07/14 05:47:02;;;;;;;8.13;4.60;;;;;;;;;;5028536;28;20694;-59
2022/07/14 05:49:28;;;;;;;13.60;5.37;;;;;;;;;;5028283;28;20185;-59
2022/07/14 05:51:54;;;;;;;13.47;5.10;;;;;;;;;;5009198;28;20697;-57
2022/07/14 05:54:21;;;;;;;12.87;5.07;;;;;;;;;;5029356;28;20191;-59
2022/07/14 05:56:50;;;;;;;14.90;4.87;;;;;;;;;;5008741;28;20180;-56
2022/07/14 05:59:17;;;;;;;16.27;5.53;;;;;;;;;;5010607;28;20207;-53
2022/07/14 06:01:43;;;;;;;12.07;4.77;;;;;;;;;;5027170;28;20183;-53
2022/07/14 06:04:09;;;;;;;14.83;4.97;;;;;;;;;;5010193;28;20275;-56
2022/07/14 06:06:36;;;;;;;9.90;4.13;;;;;;;;;;5007842;28;20219;-57
2022/07/14 06:09:03;;;;;;;11.83;5.10;;;;;;;;;;5029658;28;20290;-56
2022/07/14 06:11:30;;;;;;;10.37;4.20;;;;;;;;;;4994987;28;20214;-57
2022/07/14 06:13:57;;;;;;;13.10;4.73;;;;;;;;;;5010376;28;20189;-59
2022/07/14 06:16:23;;;;;;;9.47;4.37;;;;;;;;;;5033918;28;20644;-56
2022/07/14 06:18:50;;;;;;;16.43;4.23;;;;;;;;;;5015404;28;20224;-56
2022/07/14 06:21:16;;;;;;;8.63;4.50;;;;;;;;;;5015828;28;20720;-55
2022/07/14 06:23:42;;;;;;;10.47;3.97;;;;;;;;;;4992118;28;20171;-57
2022/07/14 06:26:10;;;;;;;9.57;4.20;;;;;;;;;;5009873;28;20276;-54
2022/07/14 06:28:36;;;;;;;9.67;4.57;;;;;;;;;;5010141;28;20273;-55
2022/07/14 06:31:03;;;;;;;10.90;4.10;;;;;;;;;;5005658;28;20218;-56
2022/07/14 06:33:30;;;;;;;8.43;4.17;;;;;;;;;;5008612;28;20601;-54
2022/07/14 06:35:56;;;;;;;12.90;4.70;;;;;;;;;;5027697;28;20158;-53
2022/07/14 06:38:22;;;;;;;10.77;3.70;;;;;;;;;;5006688;28;20225;-54
2022/07/14 06:40:49;;;;;;;9.23;3.37;;;;;;;;;;5010554;28;20186;-55
2022/07/14 06:43:15;;;;;;;12.43;4.77;;;;;;;;;;5011192;28;20190;-56
2022/07/14 06:45:41;;;;;;;7.60;3.70;;;;;;;;;;5004677;28;20296;-54
2022/07/14 06:48:07;;;;;;;9.63;4.63;;;;;;;;;;5024634;28;20575;-56
2022/07/14 06:50:34;;;;;;;11.93;4.37;;;;;;;;;;5007333;28;20210;-55
2022/07/14 06:53:00;;;;;;;15.27;5.57;;;;;;;;;;5023659;28;20269;-57
2022/07/14 06:55:26;;;;;;;13.07;4.20;;;;;;;;;;5026096;28;20158;-56
2022/07/14 06:57:53;;;;;;;10.90;4.60;;;;;;;;;;5014860;28;20271;-56
2022/07/14 07:00:19;;;;;;;12.57;5.00;;;;;;;;;;5025129;28;20232;-54
2022/07/14 07:02:45;;;;;;;8.63;4.97;;;;;;;;;;5007096;28;20263;-56
2022/07/14 07:08:00;;;;;;;12.93;4.30;;;;;;;;;;5014129;28;20226;-56
2022/07/14 07:10:33;;;;;;;9.20;4.57;;;;;;;;;;5007533;28;20206;-55
2022/07/14 07:12:59;;;;;;;11.93;5.33;;;;;;;;;;5007401;28;20195;-54
2022/07/14 07:15:25;;;;;;;14.90;4.63;;;;;;;;;;5025379;28;20816;-54
2022/07/14 07:17:51;;;;;;;13.87;4.53;;;;;;;;;;5024802;28;20182;-58
2022/07/14 07:20:17;;;;;;;11.87;4.00;;;;;;;;;;4989511;28;20205;-58
2022/07/14 07:22:43;;;;;;;14.63;4.90;;;;;;;;;;5027107;28;20233;-54
2022/07/14 07:25:12;;;;;;;13.43;4.53;;;;;;;;;;5011791;28;20182;-54
2022/07/14 07:27:39;;;;;;;10.17;4.30;;;;;;;;;;5033439;28;20594;-55
2022/07/14 07:30:06;;;;;;;9.13;4.70;;;;;;;;;;5029899;28;20197;-57
2022/07/14 07:32:32;;;;;;;9.33;3.60;;;;;;;;;;5012455;28;20703;-54
2022/07/14 07:34:59;;;;;;;11.63;4.73;;;;;;;;;;5015075;28;20246;-55
2022/07/14 07:37:25;;;;;;;14.73;4.57;;;;;;;;;;5031672;28;20454;-54
2022/07/14 07:39:51;;;;;;;8.37;4.20;;;;;;;;;;5010306;28;20557;-55
2022/07/14 07:42:21;;;;;;;16.27;4.50;;;;;;;;;;5030617;28;20256;-53
2022/07/14 07:44:49;;;;;;;13.30;4.33;;;;;;;;;;5012732;28;20724;-54
2022/07/14 07:47:16;;;;;;;8.80;3.93;;;;;;;;;;5014255;28;20255;-54
2022/07/14 07:49:42;;;;;;;11.50;4.10;;;;;;;;;;5029813;28;20167;-55
2022/07/14 07:52:08;;;;;;;9.03;4.00;;;;;;;;;;4995137;28;20681;-55
2022/07/14 07:54:36;;;;;;;9.03;4.03;;;;;;;;;;5012187;28;20183;-54
2022/07/14 07:57:02;;;;;;;8.10;3.73;;;;;;;;;;5011412;28;20643;-55
2022/07/14 07:59:29;;;;;;;8.67;3.60;;;;;;;;;;5012327;28;20176;-54
2022/07/14 08:02:02;;;;;;;7.77;3.53;;;;;;;;;;5021979;28;20183;-53
2022/07/14 08:04:28;;;;;;;8.07;3.70;;;;;;;;;;5013339;28;20210;-53
2022/07/14 08:06:54;;;;;;;7.23;3.60;;;;;;;;;;4998387;28;20184;-53
2022/07/14 08:09:21;;;;;;;7.67;3.63;;;;;;;;;;5017067;28;20181;-53
2022/07/14 08:11:48;;;;;;;6.93;3.70;;;;;;;;;;5011534;28;20427;-55
2022/07/14 08:16:59;;;;;;;6.40;2.97;;;;;;;;;;5029558;28;20196;-55
2022/07/14 08:19:26;;;;;;;6.17;3.13;;;;;;;;;;5033705;28;20295;-54
2022/07/14 08:21:52;;;;;;;5.07;3.13;;;;;;;;;;5002145;28;20288;-56
2022/07/14 08:24:18;;;;;;;5.10;3.20;;;;;;;;;;4991716;28;20175;-55
2022/07/14 08:26:45;;;;;;;5.77;3.23;;;;;;;;;;5027349;28;20284;-55
2022/07/14 08:29:12;;;;;;;6.10;3.10;;;;;;;;;;5011354;28;20194;-55
2022/07/14 08:31:38;;;;;;;7.10;3.10;;;;;;;;;;5026661;28;20209;-55
2022/07/14 08:34:04;;;;;;;7.23;3.00;;;;;;;;;;5027687;28;20189;-54
2022/07/14 08:36:31;;;;;;;4.13;2.93;;;;;;;;;;5028499;28;20182;-54
2022/07/14 08:38:58;;;;;;;6.10;2.60;;;;;;;;;;5028332;28;20178;-56
2022/07/14 08:41:24;;;;;;;4.27;2.50;;;;;;;;;;5026512;28;20189;-58
2022/07/14 08:43:51;;;;;;;6.83;2.50;;;;;;;;;;5028976;28;20186;-57
2022/07/14 08:46:18;;;;;;;6.87;2.63;;;;;;;;;;5032463;28;20673;-55
2022/07/14 08:48:46;;;;;;;5.97;3.03;;;;;;;;;;5030179;28;20188;-55
2022/07/14 08:51:12;;;;;;;9.67;3.40;;;;;;;;;;5007208;28;20206;-54
2022/07/14 08:53:39;;;;;;;4.10;2.63;;;;;;;;;;5020813;28;20645;-55
2022/07/14 08:56:05;;;;;;;8.47;2.83;;;;;;;;;;4994686;28;20179;-57
2022/07/14 08:58:32;;;;;;;10.50;2.83;;;;;;;;;;5011808;28;20178;-55
2022/07/14 09:00:58;;;;;;;5.43;2.70;;;;;;;;;;5028610;28;20589;-55
2022/07/14 09:03:25;;;;;;;4.63;2.60;;;;;;;;;;5033413;28;20596;-56
2022/07/14 09:05:53;;;;;;;5.63;2.67;;;;;;;;;;5010474;28;20185;-57
2022/07/14 09:08:19;;;;;;;5.70;2.53;;;;;;;;;;5028176;28;20186;-56
2022/07/14 09:10:47;;;;;;;4.87;2.43;;;;;;;;;;5010348;28;20562;-55
2022/07/14 09:13:17;;;;;;;4.60;2.70;;;;;;;;;;5021059;28;20224;-57
2022/07/14 09:15:46;;;;;;;3.50;2.50;;;;;;;;;;5003182;28;20731;-56
2022/07/14 09:18:20;;;;;;;6.47;3.10;;;;;;;;;;5006353;28;20185;-59
2022/07/14 09:20:47;;;;;;;6.10;3.63;;;;;;;;;;5014881;28;20660;-55
2022/07/14 09:23:13;;;;;;;4.43;2.53;;;;;;;;;;5024371;28;20776;-58
2022/07/14 09:25:40;;;;;;;6.43;3.03;;;;;;;;;;5020561;28;20687;-55
2022/07/14 09:28:09;;;;;;;5.77;2.80;;;;;;;;;;5019509;28;20178;-54
2022/07/14 09:30:36;;;;;;;7.33;2.60;;;;;;;;;;5025079;28;20209;-55
2022/07/14 09:33:04;;;;;;;5.07;2.53;;;;;;;;;;5024841;28;20204;-56
2022/07/14 09:35:34;;;;;;;6.03;3.27;;;;;;;;;;5024809;28;20191;-57
2022/07/14 09:38:00;;;;;;;7.07;2.87;;;;;;;;;;5030641;28;20173;-55
2022/07/14 09:40:31;;;;;;;8.47;3.60;;;;;;;;;;5024032;28;20182;-54
2022/07/14 09:42:58;;;;;;;6.40;3.60;;;;;;;;;;5024559;28;20178;-55
2022/07/14 09:45:26;;;;;;;6.33;3.13;;;;;;;;;;5006915;28;20255;-55
2022/07/14 09:48:09;;;;;;;8.20;3.70;;;;;;;;;;5007174;28;20187;-54
2022/07/14 09:50:48;;;;;;;5.93;3.33;;;;;;;;;;5014609;28;20201;-55
2022/07/14 09:53:25;;;;;;;6.50;2.90;;;;;;;;;;5026198;28;20766;-55
2022/07/14 09:56:10;;;;;;;6.63;3.03;;;;;;;;;;5024152;28;20174;-54
2022/07/14 09:58:44;;;;;;;7.13;2.90;;;;;;;;;;5019391;28;20710;-56
2022/07/14 10:01:12;;;;;;;4.43;2.63;;;;;;;;;;5024803;28;20174;-55
2022/07/14 10:03:42;;;;;;;8.23;2.83;;;;;;;;;;5010906;28;20193;-54
2022/07/14 10:06:09;;;;;;;7.67;2.73;;;;;;;;;;5009310;28;20182;-57
2022/07/14 10:08:36;;;;;;;5.17;2.60;;;;;;;;;;5009921;28;20235;-58
2022/07/14 10:11:03;;;;;;;5.30;2.60;;;;;;;;;;5024616;28;20226;-55
2022/07/14 10:13:31;;;;;;;5.43;2.70;;;;;;;;;;5020486;28;20194;-55
2022/07/14 10:15:57;;;;;;;6.30;2.50;;;;;;;;;;5008961;28;20197;-55
2022/07/14 10:18:24;;;;;;;6.93;3.37;;;;;;;;;;5007992;28;20185;-55
2022/07/14 10:20:52;;;;;;;4.33;2.27;;;;;;;;;;5021275;28;20742;-54
2022/07/14 10:23:21;;;;;;;3.07;2.17;;;;;;;;;;5022593;28;20240;-54
2022/07/14 10:25:53;;;;;;;4.17;2.47;;;;;;;;;;5007781;28;20303;-55
2022/07/14 10:28:19;;;;;;;5.57;2.40;;;;;;;;;;5005867;28;20182;-56
2022/07/14 10:30:48;;;;;;;5.10;2.63;;;;;;;;;;5007919;28;20231;-55
2022/07/14 10:33:31;;;;;;;4.93;2.67;;;;;;;;;;5000753;28;20301;-55
2022/07/14 10:36:16;;;;;;;4.83;2.50;;;;;;;;;;5024323;28;20171;-54
2022/07/14 10:39:01;;;;;;;7.67;3.33;;;;;;;;;;5020510;28;20658;-56
2022/07/14 10:41:45;;;;;;;6.20;2.80;;;;;;;;;;5023413;28;20192;-55
2022/07/14 10:44:16;;;;;;;7.63;3.00;;;;;;;;;;5030413;28;20515;-54
2022/07/14 10:46:44;;;;;;;6.23;3.23;;;;;;;;;;5009644;28;20551;-54
2022/07/14 10:49:12;;;;;;;7.70;3.20;;;;;;;;;;4993592;28;20195;-54
2022/07/14 10:51:51;;;;;;;5.70;3.10;;;;;;;;;;5007347;28;21137;-54
2022/07/14 10:54:24;;;;;;;4.97;3.30;;;;;;;;;;5008302;28;20187;-53
2022/07/14 10:57:07;;;;;;;7.80;3.10;;;;;;;;;;5014276;28;20553;-55
2022/07/14 10:59:35;;;;;;;5.13;2.83;;;;;;;;;;5013668;28;20557;-54
2022/07/14 11:02:13;;;;;;;6.30;2.57;;;;;;;;;;5007871;28;20182;-54
2022/07/14 11:05:01;;;;;;;4.67;3.10;;;;;;;;;;5026881;28;20749;-54
2022/07/14 11:07:42;;;;;;;6.73;3.00;;;;;;;;;;5025084;28;20204;-55
2022/07/14 11:10:20;;;;;;;4.90;2.60;;;;;;;;;;5023813;28;20190;-55
2022/07/14 11:13:05;;;;;;;2.93;2.27;;;;;;;;;;5016081;28;20584;-54
2022/07/14 11:15:41;;;;;;;5.23;2.50;;;;;;;;;;5025477;28;20549;-54
2022/07/14 11:18:21;;;;;;;7.47;2.70;;;;;;;;;;5005542;28;20166;-54
2022/07/14 11:20:55;;;;;;;6.63;2.80;;;;;;;;;;5007221;28;20202;-54
2022/07/14 11:23:29;;;;;;;6.80;2.20;;;;;;;;;;5026008;28;20737;-55
2022/07/14 11:25:55;;;;;;;4.63;2.50;;;;;;;;;;5002256;28;20339;-55
2022/07/14 11:28:38;;;;;;;5.63;1.93;;;;;;;;;;5005404;28;20191;-55
2022/07/14 11:31:11;;;;;;;8.30;3.57;;;;;;;;;;5004967;28;20202;-55
2022/07/14 11:36:26;;;;;;;3.27;2.30;;;;;;;;;;4987650;28;20180;-56
2022/07/14 11:39:12;;;;;;;5.30;2.17;;;;;;;;;;5005365;28;20183;-54
2022/07/14 11:41:45;;;;;;;2.53;1.77;;;;;;;;;;5019559;28;20187;-55
2022/07/14 11:44:30;;;;;;;3.77;2.50;;;;;;;;;;5025620;28;20556;-55
2022/07/14 11:46:59;;;;;;;3.03;2.23;;;;;;;;;;5005727;28;20233;-55
2022/07/14 11:49:26;;;;;;;5.07;2.23;;;;;;;;;;5013988;28;20186;-55
2022/07/14 11:51:56;;;;;;;2.97;2.10;;;;;;;;;;4999044;28;20199;-55
2022/07/14 11:54:23;;;;;;;2.57;2.33;;;;;;;;;;5025972;28;20664;-56
2022/07/14 11:56:49;;;;;;;3.10;2.57;;;;;;;;;;5012953;28;20206;-56
2022/07/14 11:59:19;;;;;;;3.03;2.73;;;;;;;;;;5009112;28;20181;-56
2022/07/14 12:01:46;;;;;;;4.53;2.33;;;;;;;;;;5007970;28;20175;-57
2022/07/14 12:04:17;;;;;;;4.83;4.30;;;;;;;;;;5009541;28;20211;-57
2022/07/14 12:06:47;;;;;;;4.80;3.17;;;;;;;;;;5018173;28;20652;-56
2022/07/14 12:09:16;;;;;;;4.43;2.43;;;;;;;;;;5021537;28;20212;-55
2022/07/14 12:11:52;;;;;;;3.67;1.93;;;;;;;;;;5020814;28;20207;-57
2022/07/14 12:14:19;;;;;;;2.77;2.40;;;;;;;;;;5012779;28;20183;-53
2022/07/14 12:16:47;;;;;;;5.20;3.20;;;;;;;;;;5030090;28;20269;-54
2022/07/14 12:19:26;;;;;;;4.17;2.10;;;;;;;;;;5022886;28;20213;-54
2022/07/14 12:21:57;;;;;;;3.80;2.20;;;;;;;;;;5000326;28;20194;-55
2022/07/14 12:24:25;;;;;;;5.30;2.50;;;;;;;;;;5011657;28;20599;-55
2022/07/14 12:26:52;;;;;;;2.73;2.00;;;;;;;;;;5020325;28;20230;-55
2022/07/14 12:29:18;;;;;;;4.73;2.20;;;;;;;;;;5012423;28;20255;-55
2022/07/14 12:31:45;;;;;;;3.97;2.73;;;;;;;;;;5028022;28;20680;-56
2022/07/14 12:34:11;;;;;;;2.53;2.20;;;;;;;;;;5012879;28;20404;-57
2022/07/14 12:36:38;;;;;;;3.77;2.20;;;;;;;;;;5027748;28;20226;-56
2022/07/14 12:39:05;;;;;;;3.47;2.10;;;;;;;;;;5029455;28;20193;-56
2022/07/14 12:41:31;;;;;;;4.40;2.43;;;;;;;;;;5027655;28;20190;-56
2022/07/14 12:43:58;;;;;;;3.10;2.57;;;;;;;;;;5009430;28;20386;-55
2022/07/14 12:46:25;;;;;;;5.40;2.60;;;;;;;;;;5024675;28;20212;-55
2022/07/14 12:48:54;;;;;;;4.17;2.50;;;;;;;;;;5029550;28;20588;-55
2022/07/14 12:51:21;;;;;;;3.63;2.37;;;;;;;;;;5026682;28;20284;-54
2022/07/14 12:53:59;;;;;;;5.73;2.10;;;;;;;;;;5013835;28;20463;-54
2022/07/14 12:56:27;;;;;;;2.60;2.33;;;;;;;;;;4997765;28;20268;-55
2022/07/14 12:58:53;;;;;;;4.00;2.20;;;;;;;;;;5011824;28;20606;-56
2022/07/14 13:01:19;;;;;;;2.97;2.27;;;;;;;;;;5016708;28;20273;-55
2022/07/14 13:03:58;;;;;;;4.10;2.47;;;;;;;;;;5016717;28;20502;-55
2022/07/14 13:06:26;;;;;;;3.10;2.07;;;;;;;;;;5005617;28;20414;-55
2022/07/14 13:08:52;;;;;;;3.20;2.53;;;;;;;;;;4992421;28;20273;-56
2022/07/14 13:11:18;;;;;;;2.43;2.20;;;;;;;;;;5021813;28;20210;-55
2022/07/14 13:13:53;;;;;;;3.40;2.47;;;;;;;;;;5010025;28;20167;-54
2022/07/14 13:16:30;;;;;;;4.73;2.67;;;;;;;;;;5011013;28;20174;-54
2022/07/14 13:19:07;;;;;;;5.97;2.30;;;;;;;;;;5010812;28;20998;-55
2022/07/14 13:21:47;;;;;;;3.60;2.30;;;;;;;;;;5024718;28;20200;-55
2022/07/14 13:24:33;;;;;;;3.83;2.33;;;;;;;;;;5010264;28;20178;-56
2022/07/14 13:27:01;;;;;;;3.97;2.73;;;;;;;;;;4983697;28;20236;-55
2022/07/14 13:29:31;;;;;;;3.87;2.70;;;;;;;;;;5024191;28;20274;-56
2022/07/14 13:32:00;;;;;;;5.93;2.40;;;;;;;;;;5026396;28;20584;-56
2022/07/14 13:34:28;;;;;;;3.90;2.83;;;;;;;;;;5008961;28;20237;-57
2022/07/14 13:36:55;;;;;;;10.57;4.97;;;;;;;;;;5006321;28;20181;-57
2022/07/14 13:39:22;;;;;;;6.43;3.30;;;;;;;;;;5007671;28;20177;-55
2022/07/14 13:41:48;;;;;;;4.23;2.80;;;;;;;;;;5019561;28;20198;-55
2022/07/14 13:44:16;;;;;;;2.50;2.30;;;;;;;;;;5026538;28;20201;-55
2022/07/14 13:46:43;;;;;;;4.13;2.70;;;;;;;;;;5028441;28;20237;-56
2022/07/14 13:49:09;;;;;;;4.47;2.87;;;;;;;;;;5028625;28;20185;-55
2022/07/14 13:54:20;;;;;;;4.30;2.50;;;;;;;;;;5027384;28;20208;-54
2022/07/14 13:56:46;;;;;;;2.73;2.53;;;;;;;;;;5018196;28;20258;-55
2022/07/14 13:59:13;;;;;;;5.07;3.10;;;;;;;;;;5003956;28;20555;-57
2022/07/14 14:01:39;;;;;;;4.40;2.37;;;;;;;;;;5023015;28;20376;-55
2022/07/14 14:04:13;;;;;;;3.47;2.83;;;;;;;;;;5024276;28;20185;-55
2022/07/14 14:06:41;;;;;;;6.03;2.70;;;;;;;;;;5008468;28;20184;-54
2022/07/14 14:09:08;;;;;;;4.77;3.03;;;;;;;;;;5009766;28;20206;-55
2022/07/14 14:11:34;;;;;;;3.43;2.40;;;;;;;;;;5014086;28;20233;-56
2022/07/14 14:14:04;;;;;;;2.60;2.40;;;;;;;;;;5012151;28;20188;-56
2022/07/14 14:16:31;;;;;;;4.00;2.57;;;;;;;;;;5009307;28;20188;-54
2022/07/14 14:19:00;;;;;;;2.80;2.57;;;;;;;;;;5009521;28;20185;-55
2022/07/14 14:21:27;;;;;;;3.50;2.80;;;;;;;;;;5006910;28;20277;-55
2022/07/14 14:23:53;;;;;;;4.87;2.50;;;;;;;;;;5008211;28;20159;-56
2022/07/14 14:26:20;;;;;;;3.13;2.43;;;;;;;;;;5016322;28;20234;-54
2022/07/14 14:28:46;;;;;;;3.07;2.37;;;;;;;;;;4987646;28;20180;-56
2022/07/14 14:31:15;;;;;;;3.63;2.50;;;;;;;;;;5001235;28;20296;-55
2022/07/14 14:33:42;;;;;;;2.90;2.60;;;;;;;;;;4971397;28;20807;-55
2022/07/14 14:36:14;;;;;;;2.10;2.00;;;;;;;;;;4971239;28;20302;-55
2022/07/14 14:38:40;;;;;;;2.67;1.97;;;;;;;;;;4986195;28;20164;-55
2022/07/14 14:41:10;;;;;;;5.20;2.13;;;;;;;;;;4985321;28;20185;-56
2022/07/14 14:43:36;;;;;;;3.87;2.93;;;;;;;;;;5003104;28;20550;-55
2022/07/14 14:46:02;;;;;;;3.93;2.73;;;;;;;;;;5005352;28;20607;-55
2022/07/14 14:48:28;;;;;;;3.10;2.70;;;;;;;;;;4989776;28;20203;-56
2022/07/14 14:50:55;;;;;;;4.27;2.40;;;;;;;;;;4989748;28;20303;-55
2022/07/14 14:53:24;;;;;;;3.70;2.50;;;;;;;;;;5007329;28;20181;-55
2022/07/14 14:55:50;;;;;;;5.40;2.93;;;;;;;;;;4989231;28;20189;-55
2022/07/14 14:58:17;;;;;;;4.40;2.67;;;;;;;;;;5007053;28;20159;-55
2022/07/14 15:00:43;;;;;;;3.20;2.50;;;;;;;;;;5006531;28;20225;-55
2022/07/14 15:03:10;;;;;;;4.77;2.60;;;;;;;;;;4971327;28;20186;-54
2022/07/14 15:05:36;;;;;;;2.97;2.40;;;;;;;;;;4988170;28;20250;-55